Time;durP1;ratioP1;P1;durP2;ratioP2;P2;SDS_P1;SDS_P2;PMS_P1;PMS_P2;Temp;Humidity;BMP_temperature;BMP_pressure;BME280_temperature;BME280_humidity;BME280_pressure;Samples;Min_cycle;Max_cycle;Signal;HPM_P1;HPM_P2
2022/10/30 00:01:59;;;;;;;;;18.33;16.00;;;;;19.66;58.43;101316.47;5059842;28;45374;-45
2022/10/30 00:04:24;;;;;;;;;21.00;17.67;;;;;19.61;58.46;101319.75;5059609;28;45433;-41
2022/10/30 00:06:50;;;;;;;;;16.33;14.00;;;;;19.55;58.76;101325.91;5060118;28;45302;-44
2022/10/30 00:09:15;;;;;;;;;24.67;19.67;;;;;19.49;59.04;101323.13;5059468;28;47534;-42
2022/10/30 00:11:41;;;;;;;;;22.00;20.33;;;;;19.39;59.90;101326.97;5059525;28;45394;-44
2022/10/30 00:14:07;;;;;;;;;20.33;18.67;;;;;19.32;60.31;101330.63;5059534;28;45433;-45
2022/10/30 00:16:33;;;;;;;;;21.00;18.33;;;;;19.30;60.10;101336.22;5059574;28;45268;-46
2022/10/30 00:18:58;;;;;;;;;23.00;19.67;;;;;19.27;60.40;101330.34;5059285;28;46305;-45
2022/10/30 00:21:24;;;;;;;;;19.00;18.00;;;;;19.22;60.81;101320.13;5059275;28;45368;-44
2022/10/30 00:23:52;;;;;;;;;23.33;20.00;;;;;19.22;60.68;101325.53;5059407;28;45416;-42
2022/10/30 00:26:20;;;;;;;;;29.33;21.67;;;;;19.19;61.29;101318.66;5059902;28;45508;-49
2022/10/30 00:28:50;;;;;;;;;23.33;17.00;;;;;19.13;61.18;101323.94;5058865;28;46500;-51
2022/10/30 00:31:15;;;;;;;;;23.00;18.67;;;;;19.10;61.36;101333.25;5059082;28;45446;-47
2022/10/30 00:33:40;;;;;;;;;20.33;19.33;;;;;19.06;61.36;101325.75;5059472;28;45352;-47
2022/10/30 00:36:06;;;;;;;;;18.33;18.00;;;;;19.08;61.41;101315.59;5059560;28;45448;-44
2022/10/30 00:38:32;;;;;;;;;21.00;17.33;;;;;18.94;61.41;101293.84;5059357;28;47237;-43
2022/10/30 00:40:57;;;;;;;;;24.00;18.67;;;;;19.01;61.34;101318.22;5059173;28;45454;-46
2022/10/30 00:43:33;;;;;;;;;18.33;17.33;;;;;18.90;61.80;101314.13;5059398;28;45652;-47
2022/10/30 00:46:12;;;;;;;;;18.67;14.67;;;;;18.88;61.43;101332.38;5059220;28;45483;-46
2022/10/30 00:48:38;;;;;;;;;24.00;19.67;;;;;18.76;61.85;101325.78;5058966;28;47270;-49
2022/10/30 00:51:07;;;;;;;;;23.33;15.00;;;;;18.61;62.28;101314.94;5058764;28;45235;-45
2022/10/30 00:53:33;;;;;;;;;16.00;16.00;;;;;18.57;62.34;101315.50;5059069;28;45330;-46
2022/10/30 00:56:02;;;;;;;;;22.00;17.67;;;;;18.53;62.49;101331.19;5058992;28;45347;-44
2022/10/30 00:58:35;;;;;;;;;23.67;19.00;;;;;18.51;62.04;101338.63;5057752;28;46465;-47
2022/10/30 01:01:04;;;;;;;;;26.33;21.67;;;;;18.44;62.73;101329.59;5058640;28;45526;-48
2022/10/30 01:03:30;;;;;;;;;19.33;15.00;;;;;18.43;62.81;101341.41;5058704;28;45496;-49
2022/10/30 01:05:59;;;;;;;;;21.33;18.67;;;;;18.35;63.18;101349.56;5058918;28;45316;-51
2022/10/30 01:08:25;;;;;;;;;20.00;16.00;;;;;18.32;63.03;101360.69;5058498;28;46410;-44
2022/10/30 01:10:51;;;;;;;;;21.33;17.00;;;;;18.31;63.04;101350.97;5058455;28;45386;-49
2022/10/30 01:13:19;;;;;;;;;21.67;18.67;;;;;18.19;62.62;101331.69;5074188;28;45349;-51
2022/10/30 01:16:14;;;;;;;;;20.33;16.00;;;;;18.29;62.81;101351.16;5058657;28;45420;-45
2022/10/30 01:18:58;;;;;;;;;21.33;17.00;;;;;18.24;62.70;101350.84;5058372;28;47252;-49
2022/10/30 01:22:03;;;;;;;;;18.00;15.00;;;;;18.20;62.82;101353.09;5058470;28;45290;-47
2022/10/30 01:24:45;;;;;;;;;19.67;16.33;;;;;18.20;62.76;101339.63;5058340;28;45248;-46
2022/10/30 01:27:12;;;;;;;;;15.67;13.33;;;;;18.20;62.76;101345.00;5058934;28;45296;-45
2022/10/30 01:30:04;;;;;;;;;16.00;15.33;;;;;18.18;63.05;101352.41;5058155;28;47202;-43
2022/10/30 01:33:08;;;;;;;;;20.33;15.67;;;;;18.20;62.76;101342.31;5058274;28;45375;-41
2022/10/30 01:35:47;;;;;;;;;25.33;17.67;;;;;18.20;62.61;101345.00;5058296;28;45378;-45
2022/10/30 01:38:32;;;;;;;;;18.33;14.33;;;;;18.17;62.78;101350.75;5058612;28;45217;-47
2022/10/30 01:40:57;;;;;;;;;13.00;12.33;;;;;18.19;62.93;101358.63;5058351;28;46503;-47
2022/10/30 01:43:22;;;;;;;;;21.00;15.00;;;;;18.25;63.11;101357.09;5058267;28;45447;-43
2022/10/30 01:46:09;;;;;;;;;20.33;16.33;;;;;18.31;62.71;101346.41;5058116;28;45830;-42
2022/10/30 01:49:10;;;;;;;;;18.00;13.00;;;;;18.26;62.55;101337.22;5058577;28;45398;-43
2022/10/30 01:51:44;;;;;;;;;14.50;14.00;;;;;18.32;62.66;101339.16;5058030;28;45468;-44
2022/10/30 01:54:51;;;;;;;;;18.67;14.67;;;;;18.34;62.36;101342.53;5057965;28;45310;-43
2022/10/30 01:57:38;;;;;;;;;14.67;12.33;;;;;18.24;62.43;101326.59;4995728;28;45452;-42
2022/10/30 02:00:05;;;;;;;;;17.33;15.67;;;;;18.31;62.64;101340.19;4995754;28;45291;-44
2022/10/30 02:02:31;;;;;;;;;16.00;14.67;;;;;18.29;62.47;101328.78;4995571;28;46658;-43
2022/10/30 02:04:57;;;;;;;;;18.33;16.00;;;;;18.23;62.28;101324.09;4995614;28;45302;-43
2022/10/30 02:07:23;;;;;;;;;13.33;11.33;;;;;18.21;62.65;101316.22;4995883;28;45350;-42
2022/10/30 02:09:50;;;;;;;;;17.67;14.33;;;;;18.18;62.68;101309.31;4995914;28;45647;-47
2022/10/30 02:12:16;;;;;;;;;14.33;10.67;;;;;18.16;62.90;101313.22;4995661;28;45564;-45
2022/10/30 02:14:45;;;;;;;;;17.33;14.00;;;;;18.15;62.91;101314.22;4995440;28;45415;-43
2022/10/30 02:17:12;;;;;;;;;17.00;14.67;;;;;18.16;63.10;101307.81;4995690;28;45365;-43
2022/10/30 02:19:37;;;;;;;;;15.67;12.33;;;;;18.18;62.69;101317.41;4995794;28;45502;-45
2022/10/30 02:22:03;;;;;;;;;19.33;14.33;;;;;18.15;62.90;101307.00;4995547;28;45305;-45
2022/10/30 02:24:30;;;;;;;;;19.00;14.67;;;;;18.17;63.19;101314.91;4995504;28;45459;-44
2022/10/30 02:26:55;;;;;;;;;16.00;15.00;;;;;18.17;63.17;101304.13;4995777;28;45404;-43
2022/10/30 02:29:20;;;;;;;;;19.00;16.33;;;;;18.18;63.21;101303.94;4995669;28;45560;-43
2022/10/30 02:31:46;;;;;;;;;16.00;15.33;;;;;18.17;63.16;101314.91;5039188;28;46124;-42
2022/10/30 02:34:11;;;;;;;;;18.67;14.67;;;;;18.06;63.54;101308.09;5057468;28;45274;-42
2022/10/30 02:36:37;;;;;;;;;19.33;13.67;;;;;18.00;63.51;101305.31;5057516;28;45653;-44
2022/10/30 02:39:02;;;;;;;;;17.00;14.00;;;;;18.05;63.47;101305.59;5057841;28;45569;-43
2022/10/30 02:41:28;;;;;;;;;17.67;13.00;;;;;18.03;63.76;101303.06;5057563;28;46966;-42
2022/10/30 02:43:53;;;;;;;;;17.67;15.00;;;;;18.07;63.54;101301.69;5057097;28;45203;-42
2022/10/30 02:46:20;;;;;;;;;17.00;13.00;;;;;18.11;63.12;101305.69;5057056;28;45304;-44
2022/10/30 02:48:45;;;;;;;;;21.67;18.00;;;;;18.10;63.33;101305.88;5057490;28;45415;-44
2022/10/30 02:51:11;;;;;;;;;22.00;14.00;;;;;18.10;63.53;101309.41;5057139;28;45805;-44
2022/10/30 02:53:37;;;;;;;;;20.67;14.67;;;;;18.13;63.45;101300.97;5057190;28;45396;-42
2022/10/30 02:56:11;;;;;;;;;19.67;16.00;;;;;18.15;63.20;101301.59;5057315;28;45312;-43
2022/10/30 02:58:37;;;;;;;;;19.33;13.67;;;;;18.14;63.01;101302.63;5057595;28;45292;-45
2022/10/30 03:01:06;;;;;;;;;15.33;14.33;;;;;18.10;62.81;101295.09;5056841;28;45224;-48
2022/10/30 03:03:31;;;;;;;;;21.67;16.33;;;;;18.10;63.02;101295.09;5056879;28;45311;-48
2022/10/30 03:06:00;;;;;;;;;14.67;13.33;;;;;18.08;62.89;101302.53;5057126;28;45391;-42
2022/10/30 03:08:26;;;;;;;;;18.33;15.00;;;;;18.07;63.10;101287.38;5057111;28;45433;-42
2022/10/30 03:10:51;;;;;;;;;21.67;15.67;;;;;18.05;63.04;101286.75;5056929;28;45303;-45
2022/10/30 03:13:16;;;;;;;;;13.67;12.00;;;;;18.04;63.09;101294.00;5057021;28;45478;-49
2022/10/30 03:15:42;;;;;;;;;16.00;12.00;;;;;18.02;63.39;101293.31;5056775;28;45310;-43
2022/10/30 03:18:07;;;;;;;;;14.00;13.00;;;;;18.00;63.25;101294.53;5057153;28;45517;-45
2022/10/30 03:20:32;;;;;;;;;15.67;15.33;;;;;17.97;63.34;101295.72;5057030;28;46327;-44
2022/10/30 03:22:58;;;;;;;;;19.00;15.67;;;;;17.93;63.56;101295.25;5060239;28;45382;-44
2022/10/30 03:25:23;;;;;;;;;16.67;13.33;;;;;17.90;63.63;101294.75;5060581;28;45315;-44
2022/10/30 03:27:49;;;;;;;;;19.00;14.00;;;;;17.86;63.62;101291.59;5060472;28;45319;-44
2022/10/30 03:30:14;;;;;;;;;20.00;15.33;;;;;17.81;63.68;101279.72;5060178;28;46103;-45
2022/10/30 03:32:39;;;;;;;;;18.33;14.67;;;;;17.75;63.76;101275.91;5059871;28;45472;-50
2022/10/30 03:35:05;;;;;;;;;17.67;14.33;;;;;17.72;63.88;101278.91;5060590;28;45304;-43
2022/10/30 03:37:30;;;;;;;;;17.33;15.00;;;;;17.68;64.19;101269.53;5060575;28;45332;-43
2022/10/30 03:39:55;;;;;;;;;20.33;15.00;;;;;17.68;64.21;101278.44;5059964;28;46106;-46
2022/10/30 03:42:21;;;;;;;;;13.00;13.00;;;;;17.64;64.47;101273.59;5060101;28;45382;-49
2022/10/30 03:44:46;;;;;;;;;17.33;15.67;;;;;17.65;64.51;101281.47;5060031;28;45478;-47
2022/10/30 03:47:11;;;;;;;;;14.33;13.00;;;;;17.59;64.22;101271.44;5060280;28;45707;-45
2022/10/30 03:49:37;;;;;;;;;19.67;15.00;;;;;17.58;64.53;101264.41;5059959;28;47148;-49
2022/10/30 03:52:02;;;;;;;;;14.33;14.00;;;;;17.59;64.46;101263.38;5060076;28;45405;-45
2022/10/30 03:54:27;;;;;;;;;19.00;15.00;;;;;17.56;64.74;101262.88;5060170;28;45657;-44
2022/10/30 03:56:53;;;;;;;;;15.67;13.67;;;;;17.53;64.43;101264.09;5058962;28;45448;-47
2022/10/30 03:59:18;;;;;;;;;18.67;13.67;;;;;17.52;64.86;101269.66;5059939;28;46004;-43
2022/10/30 04:01:43;;;;;;;;;5.00;1.00;;;;;17.46;64.83;101268.53;5059893;28;45356;-42
2022/10/30 04:04:09;;;;;;;;;15.00;14.00;;;;;17.45;64.78;101275.75;5059975;28;45414;-44
2022/10/30 04:06:34;;;;;;;;;20.00;14.00;;;;;17.42;64.86;101276.09;5060149;28;45204;-45
2022/10/30 04:08:59;;;;;;;;;22.00;16.67;;;;;17.45;64.96;101258.78;5059783;28;46261;-44
2022/10/30 04:11:24;;;;;;;;;15.67;13.33;;;;;17.48;64.71;101271.84;5059878;28;45218;-43
2022/10/30 04:13:50;;;;;;;;;14.33;12.33;;;;;17.46;64.69;101261.28;5059608;28;45415;-43
2022/10/30 04:16:15;;;;;;;;;16.00;12.00;;;;;17.45;64.82;101265.00;5059695;28;45307;-43
2022/10/30 04:18:41;;;;;;;;;17.00;13.00;;;;;17.40;64.94;101262.00;5059558;28;47281;-45
2022/10/30 04:21:06;;;;;;;;;13.33;12.67;;;;;17.40;65.14;101269.22;5059532;28;45275;-40
2022/10/30 04:23:31;;;;;;;;;17.33;12.33;;;;;17.37;65.14;101267.75;5059704;28;45315;-45
2022/10/30 04:25:59;;;;;;;;;15.67;13.00;;;;;17.38;65.06;101272.09;5059620;28;45449;-45
2022/10/30 04:28:25;;;;;;;;;17.00;14.00;;;;;17.37;65.12;101265.06;5059331;28;46358;-43
2022/10/30 04:30:50;;;;;;;;;16.33;13.00;;;;;17.39;64.94;101257.63;5059054;28;45375;-44
2022/10/30 04:33:16;;;;;;;;;15.67;13.67;;;;;17.42;64.72;101257.28;5058099;28;45390;-44
2022/10/30 04:35:42;;;;;;;;;21.00;15.33;;;;;17.36;65.02;101241.00;5059535;28;45347;-43
2022/10/30 04:38:10;;;;;;;;;19.67;16.67;;;;;17.34;65.04;101248.44;5059083;28;46257;-45
2022/10/30 04:40:38;;;;;;;;;17.33;14.00;;;;;17.25;65.01;101238.75;5059115;28;45326;-47
2022/10/30 04:43:04;;;;;;;;;23.67;12.67;;;;;17.14;65.57;101235.44;5059162;28;45232;-48
2022/10/30 04:45:30;;;;;;;;;15.67;13.00;;;;;17.02;65.74;101231.47;5059006;28;45448;-45
2022/10/30 04:48:00;;;;;;;;;17.67;13.33;;;;;17.05;65.63;101247.25;5058825;28;46142;-42
2022/10/30 04:50:26;;;;;;;;;20.67;12.33;;;;;17.05;65.88;101255.31;5059042;28;45344;-45
2022/10/30 04:53:01;;;;;;;;;12.33;12.00;;;;;17.01;65.88;101245.09;5059047;28;45390;-43
2022/10/30 04:55:28;;;;;;;;;23.67;13.00;;;;;17.02;66.17;101246.78;5059313;28;45325;-46
2022/10/30 04:57:58;;;;;;;;;18.00;12.33;;;;;17.03;65.50;101241.25;5058765;28;46170;-43
2022/10/30 05:00:25;;;;;;;;;18.67;13.67;;;;;17.01;66.07;101250.47;5058694;28;45360;-48
2022/10/30 05:02:50;;;;;;;;;19.33;14.67;;;;;16.95;65.94;101247.50;5058678;28;45357;-43
2022/10/30 05:05:15;;;;;;;;;11.00;9.33;;;;;16.94;66.02;101237.75;5059098;28;45492;-43
2022/10/30 05:07:41;;;;;;;;;14.00;12.33;;;;;16.99;65.78;101241.78;5058688;28;46156;-43
2022/10/30 05:10:06;;;;;;;;;19.00;13.00;;;;;16.96;65.86;101242.94;5058721;28;45310;-44
2022/10/30 05:12:32;;;;;;;;;18.33;12.00;;;;;16.92;66.22;101247.00;5058625;28;45375;-44
2022/10/30 05:14:57;;;;;;;;;18.00;16.00;;;;;16.91;66.25;101253.41;5059111;28;45323;-46
2022/10/30 05:17:22;;;;;;;;;13.33;12.33;;;;;16.91;66.25;101245.34;5058443;28;46565;-42
2022/10/30 05:19:47;;;;;;;;;12.67;12.33;;;;;16.92;66.71;101241.63;5058714;28;45253;-44
2022/10/30 05:22:13;;;;;;;;;16.33;14.00;;;;;16.98;66.12;101243.63;5058922;28;45248;-43
2022/10/30 05:24:38;;;;;;;;;18.67;14.33;;;;;17.00;66.21;101248.81;5058863;28;45678;-42
2022/10/30 05:27:04;;;;;;;;;17.33;13.00;;;;;16.98;66.12;101234.69;5058455;28;46643;-43
2022/10/30 05:29:29;;;;;;;;;18.33;15.00;;;;;16.93;66.26;101225.31;5058437;28;45460;-45
2022/10/30 05:31:55;;;;;;;;;17.33;13.00;;;;;16.95;66.35;101236.75;5058237;28;45642;-47
2022/10/30 05:34:20;;;;;;;;;10.00;10.00;;;;;16.98;66.51;101223.94;5058483;28;45489;-42
2022/10/30 05:36:46;;;;;;;;;14.67;12.00;;;;;16.98;66.31;101224.81;5058082;28;46271;-45
2022/10/30 05:39:11;;;;;;;;;20.00;13.00;;;;;16.92;66.59;101223.66;5058462;28;45401;-47
2022/10/30 05:41:36;;;;;;;;;20.67;13.00;;;;;16.93;66.40;101217.25;5058317;28;45423;-44
2022/10/30 05:44:02;;;;;;;;;18.00;14.00;;;;;16.91;66.51;101213.09;5057556;28;45319;-43
2022/10/30 05:46:27;;;;;;;;;17.00;15.33;;;;;16.85;66.84;101229.91;5057963;28;46264;-43
2022/10/30 05:48:52;;;;;;;;;17.33;11.67;;;;;16.81;66.83;101239.31;5058087;28;45454;-42
2022/10/30 05:51:18;;;;;;;;;16.67;11.00;;;;;16.83;66.85;101243.53;5058397;28;45280;-44
2022/10/30 05:53:43;;;;;;;;;18.00;14.00;;;;;16.88;66.79;101241.13;5058461;28;45248;-44
2022/10/30 05:56:08;;;;;;;;;13.00;11.67;;;;;16.88;66.74;101240.31;5057233;28;45375;-47
2022/10/30 05:58:34;;;;;;;;;17.00;13.00;;;;;16.86;66.90;101239.66;5058255;28;45392;-43
2022/10/30 06:00:59;;;;;;;;;16.67;13.00;;;;;16.81;67.05;101234.81;5057896;28;45346;-43
2022/10/30 06:03:24;;;;;;;;;15.67;13.00;;;;;16.84;66.70;101228.22;5058327;28;45465;-44
2022/10/30 06:05:50;;;;;;;;;14.33;11.33;;;;;16.79;66.94;101220.69;5057994;28;46162;-44
2022/10/30 06:08:15;;;;;;;;;20.00;15.67;;;;;16.77;67.06;101221.88;5058504;28;45224;-42
2022/10/30 06:10:41;;;;;;;;;21.67;14.67;;;;;16.77;66.79;101222.75;5058356;28;45293;-45
2022/10/30 06:13:07;;;;;;;;;14.33;12.67;;;;;16.74;67.05;101220.41;5058211;28;45387;-43
2022/10/30 06:15:32;;;;;;;;;21.00;14.00;;;;;16.73;67.06;101220.56;5058078;28;45406;-43
2022/10/30 06:17:59;;;;;;;;;16.67;14.33;;;;;16.59;67.24;101209.50;5057559;28;45469;-43
2022/10/30 06:20:27;;;;;;;;;17.67;13.33;;;;;16.62;67.73;101225.28;5057941;28;45419;-42
2022/10/30 06:23:04;;;;;;;;;20.67;14.00;;;;;16.61;67.38;101228.16;5058053;28;45451;-44
2022/10/30 06:25:32;;;;;;;;;14.33;12.00;;;;;16.57;67.37;101222.28;5057624;28;46326;-42
2022/10/30 06:27:57;;;;;;;;;21.00;12.00;;;;;16.66;67.34;101241.88;5057483;28;45502;-43
2022/10/30 06:30:24;;;;;;;;;16.33;11.00;;;;;16.62;67.34;101229.81;5057651;28;45336;-43
2022/10/30 06:32:49;;;;;;;;;21.00;17.00;;;;;16.59;67.66;101239.03;5057627;28;45284;-42
2022/10/30 06:35:15;;;;;;;;;16.33;13.33;;;;;16.58;67.52;101239.22;5057299;28;45315;-45
2022/10/30 06:37:46;;;;;;;;;22.67;16.00;;;;;16.54;67.58;101237.91;5057406;28;45501;-43
2022/10/30 06:40:11;;;;;;;;;12.00;7.00;;;;;16.50;68.04;101244.63;5057327;28;45307;-43
2022/10/30 06:42:44;;;;;;;;;14.67;11.67;;;;;16.46;67.78;101247.66;5057610;28;45422;-42
2022/10/30 06:45:11;;;;;;;;;16.00;13.33;;;;;16.41;68.13;101238.44;5057012;28;46581;-43
2022/10/30 06:47:37;;;;;;;;;21.00;15.33;;;;;16.38;67.93;101238.78;5057060;28;45516;-44
2022/10/30 06:50:04;;;;;;;;;17.00;11.67;;;;;16.41;67.95;101244.66;5057431;28;45268;-46
2022/10/30 06:52:30;;;;;;;;;15.67;12.67;;;;;16.41;68.06;101251.88;5057358;28;45590;-43
2022/10/30 06:54:55;;;;;;;;;19.00;12.33;;;;;16.33;68.29;101254.59;5056504;28;45510;-44
2022/10/30 06:57:21;;;;;;;;;15.33;11.00;;;;;16.30;68.47;101261.13;5056677;28;45395;-43
2022/10/30 06:59:46;;;;;;;;;11.33;11.00;;;;;16.30;68.64;101252.22;5057143;28;45513;-41
2022/10/30 07:02:11;;;;;;;;;19.33;14.33;;;;;16.36;68.58;101262.31;5056681;28;45477;-42
2022/10/30 07:04:36;;;;;;;;;18.33;11.67;;;;;16.36;68.46;101262.31;5057082;28;46082;-42
2022/10/30 07:07:03;;;;;;;;;13.33;13.00;;;;;16.34;68.28;101251.72;5056867;28;45389;-42
2022/10/30 07:09:28;;;;;;;;;21.00;14.33;;;;;16.45;68.36;101258.59;5057122;28;45489;-41
2022/10/30 07:11:54;;;;;;;;;17.67;14.33;;;;;16.42;68.31;101245.50;5057248;28;45403;-41
2022/10/30 07:14:19;;;;;;;;;14.67;14.67;;;;;16.43;68.00;101239.97;5056751;28;46225;-43
2022/10/30 07:16:44;;;;;;;;;16.67;12.67;;;;;16.44;68.08;101240.81;5056758;28;45442;-43
2022/10/30 07:19:10;;;;;;;;;12.00;12.00;;;;;16.41;68.34;101247.34;5057063;28;45353;-44
2022/10/30 07:21:35;;;;;;;;;21.00;16.00;;;;;16.42;68.21;101249.00;5057203;28;45165;-47
2022/10/30 07:24:01;;;;;;;;;16.67;14.00;;;;;16.43;68.48;101241.78;5056594;28;45426;-48
2022/10/30 07:26:26;;;;;;;;;18.67;16.00;;;;;16.53;68.03;101236.25;5056882;28;45296;-45
2022/10/30 07:28:51;;;;;;;;;15.00;12.33;;;;;16.60;67.98;101232.69;5056778;28;45772;-45
2022/10/30 07:31:17;;;;;;;;;16.00;15.00;;;;;16.60;67.86;101235.38;5056833;28;45198;-41
2022/10/30 07:33:42;;;;;;;;;14.67;14.33;;;;;16.57;67.95;101227.66;5056544;28;46971;-44
2022/10/30 07:36:08;;;;;;;;;17.00;14.00;;;;;16.61;67.94;101244.28;5056268;28;45238;-47
2022/10/30 07:38:33;;;;;;;;;16.33;13.67;;;;;16.66;67.90;101252.63;5056820;28;45248;-46
2022/10/30 07:40:58;;;;;;;;;18.67;14.33;;;;;16.65;67.83;101256.34;5056586;28;45457;-47
2022/10/30 07:43:24;;;;;;;;;22.33;14.67;;;;;16.66;67.96;101258.00;5056345;28;46965;-44
2022/10/30 07:45:49;;;;;;;;;17.67;13.33;;;;;16.74;67.42;101263.38;5056433;28;45387;-43
2022/10/30 07:48:14;;;;;;;;;20.33;16.00;;;;;16.71;67.55;101248.41;5056298;28;45617;-42
2022/10/30 07:50:40;;;;;;;;;22.67;14.33;;;;;16.66;67.80;101248.09;5056563;28;45340;-42
2022/10/30 07:53:06;;;;;;;;;17.33;16.33;;;;;16.71;67.66;101250.25;5056185;28;47017;-43
2022/10/30 07:55:31;;;;;;;;;17.67;15.00;;;;;16.70;67.78;101252.09;5055160;28;45393;-44
2022/10/30 07:57:57;;;;;;;;;15.00;12.00;;;;;16.67;67.88;101244.38;5056640;28;45917;-42
2022/10/30 08:00:22;;;;;;;;;17.67;13.67;;;;;16.77;67.26;101246.91;5055099;28;45651;-44
2022/10/30 08:02:54;;;;;;;;;15.67;14.00;;;;;16.75;67.24;101240.88;5056387;28;45378;-43
2022/10/30 08:05:19;;;;;;;;;15.00;12.00;;;;;16.81;67.08;101250.94;5056191;28;45287;-44
2022/10/30 08:07:46;;;;;;;;;19.00;13.33;;;;;16.87;67.02;101254.75;5058490;28;45330;-42
2022/10/30 08:10:11;;;;;;;;;20.00;16.33;;;;;16.93;66.78;101259.41;5060041;28;45367;-46
2022/10/30 08:12:39;;;;;;;;;16.00;14.00;;;;;16.90;66.63;101270.53;5059540;28;46290;-47
2022/10/30 08:15:05;;;;;;;;;19.67;17.00;;;;;16.93;66.55;101272.84;5058272;28;45363;-48
2022/10/30 08:17:31;;;;;;;;;14.00;14.00;;;;;17.07;66.36;101279.34;5059315;28;45474;-49
2022/10/30 08:19:56;;;;;;;;;16.67;13.00;;;;;17.16;66.03;101287.19;5059795;28;45395;-49
2022/10/30 08:22:22;;;;;;;;;16.33;12.67;;;;;17.16;65.97;101287.19;5058985;28;45447;-45
2022/10/30 08:24:47;;;;;;;;;16.67;14.00;;;;;17.15;64.99;101292.72;5059288;28;45501;-47
2022/10/30 08:27:12;;;;;;;;;15.33;15.33;;;;;17.16;65.36;101300.63;5059681;28;45372;-46
2022/10/30 08:29:38;;;;;;;;;21.00;13.00;;;;;17.11;65.17;101292.25;5059758;28;45384;-48
2022/10/30 08:32:03;;;;;;;;;15.33;12.33;;;;;17.25;64.72;101308.66;5059278;28;46493;-44
2022/10/30 08:34:30;;;;;;;;;12.00;12.00;;;;;17.29;64.58;101323.44;5059368;28;45379;-48
2022/10/30 08:36:56;;;;;;;;;14.00;12.33;;;;;17.28;64.46;101324.44;5059210;28;45458;-44
2022/10/30 08:39:21;;;;;;;;;14.00;14.00;;;;;17.34;64.18;101324.56;5059411;28;45375;-48
2022/10/30 08:41:47;;;;;;;;;16.00;13.00;;;;;17.35;63.82;101307.41;5058922;28;45382;-47
2022/10/30 08:44:12;;;;;;;;;16.00;13.33;;;;;17.38;64.10;101314.28;5058903;28;45370;-46
2022/10/30 08:46:37;;;;;;;;;12.67;10.67;;;;;17.32;64.38;101304.22;5059537;28;45417;-46
2022/10/30 08:49:03;;;;;;;;;16.33;12.00;;;;;17.37;64.20;101315.31;5059218;28;45441;-48
2022/10/30 08:51:33;;;;;;;;;15.00;14.67;;;;;17.34;64.06;101321.03;5058883;28;46255;-43
2022/10/30 08:53:59;;;;;;;;;15.67;14.33;;;;;17.24;64.20;101307.81;5059115;28;45225;-45
2022/10/30 08:56:24;;;;;;;;;20.67;12.00;;;;;17.37;63.90;101310.78;5059016;28;45393;-42
2022/10/30 08:58:50;;;;;;;;;23.67;16.00;;;;;17.37;63.96;101309.94;5059380;28;46211;-44
2022/10/30 09:01:16;;;;;;;;;14.00;12.33;;;;;17.43;63.89;101293.06;5058877;28;46030;-42
2022/10/30 09:03:43;;;;;;;;;16.00;13.33;;;;;17.50;63.49;101293.22;5058917;28;45396;-46
2022/10/30 09:06:08;;;;;;;;;13.33;13.33;;;;;17.57;63.49;101300.41;5059026;28;45354;-44
2022/10/30 09:08:34;;;;;;;;;16.67;13.67;;;;;17.67;63.05;101295.59;5059001;28;45413;-43
2022/10/30 09:10:59;;;;;;;;;20.00;15.33;;;;;17.79;62.72;101311.38;5058863;28;45921;-53
2022/10/30 09:13:25;;;;;;;;;17.33;14.67;;;;;17.87;62.29;101311.31;5058562;28;45369;-46
2022/10/30 09:15:50;;;;;;;;;15.67;13.00;;;;;17.94;62.37;101318.44;5058763;28;45246;-45
2022/10/30 09:18:16;;;;;;;;;17.33;16.33;;;;;18.08;61.75;101314.16;5058167;28;45221;-43
2022/10/30 09:20:41;;;;;;;;;14.33;12.33;;;;;18.20;61.68;101312.69;5058393;28;46085;-43
2022/10/30 09:23:07;;;;;;;;;17.67;14.00;;;;;18.52;61.04;101317.91;5058865;28;45318;-48
2022/10/30 09:25:35;;;;;;;;;18.00;16.33;;;;;18.83;60.19;101315.06;5058740;28;45394;-48
2022/10/30 09:28:00;;;;;;;;;15.00;14.00;;;;;19.26;59.20;101318.75;5057488;28;45413;-45
2022/10/30 09:30:26;;;;;;;;;12.67;12.67;;;;;19.63;58.00;101322.25;5058231;28;47010;-52
2022/10/30 09:32:56;;;;;;;;;13.67;12.00;;;;;19.90;57.44;101328.78;5058166;28;45569;-50
2022/10/30 09:35:21;;;;;;;;;16.50;15.00;;;;;20.09;56.56;101325.38;5058421;28;45210;-45
2022/10/30 09:37:47;;;;;;;;;16.50;14.00;;;;;20.27;55.69;101319.53;5058441;28;45444;-50
2022/10/30 09:40:40;;;;;;;;;14.25;12.00;;;;;20.43;55.68;101321.06;5058061;28;45431;-49
2022/10/30 09:43:27;;;;;;;;;18.75;15.75;;;;;20.59;55.10;101325.38;5058082;28;45359;-50
2022/10/30 09:46:13;;;;;;;;;13.50;11.75;;;;;20.82;55.19;101317.81;5058042;28;45414;-49
2022/10/30 09:48:43;;;;;;;;;19.25;13.50;;;;;21.33;53.79;101330.13;5058390;28;45311;-51
2022/10/30 09:51:14;;;;;;;;;11.75;10.00;;;;;21.73;52.10;101322.09;5058001;28;47129;-49
2022/10/30 09:53:55;;;;;;;;;15.00;14.25;;;;;21.98;51.64;101323.16;5058046;28;45375;-45
2022/10/30 09:56:30;;;;;;;;;14.75;11.75;;;;;22.24;50.64;101338.59;5058161;28;45462;-50
2022/10/30 09:59:04;;;;;;;;;17.00;10.25;;;;;22.42;50.37;101333.41;5058434;28;45251;-50
2022/10/30 10:01:38;;;;;;;;;17.00;12.00;;;;;22.37;50.25;101329.63;5058066;28;46219;-52
2022/10/30 10:04:15;;;;;;;;;12.00;10.20;;;;;22.24;49.75;101335.06;5057674;28;45478;-51
2022/10/30 10:06:45;;;;;;;;;14.00;11.50;;;;;22.08;50.05;101320.88;5058214;28;45290;-49
2022/10/30 10:09:23;;;;;;;;;11.75;11.50;;;;;21.92;50.62;101326.72;5058092;28;45355;-51
2022/10/30 10:12:12;;;;;;;;;11.00;10.00;;;;;21.90;50.63;101336.91;5057835;28;45358;-49
2022/10/30 10:14:43;;;;;;;;;14.40;7.40;;;;;21.83;50.69;101341.50;5057789;28;45340;-49
2022/10/30 10:17:28;;;;;;;;;9.40;8.20;;;;;21.71;50.62;101341.28;5057879;28;45247;-52
2022/10/30 10:20:00;;;;;;;;;9.00;8.25;;;;;21.66;51.01;101333.75;5058071;28;45335;-50
2022/10/30 10:22:37;;;;;;;;;11.50;8.00;;;;;21.61;50.65;101335.41;5057565;28;45414;-51
2022/10/30 10:25:10;;;;;;;;;9.50;9.50;;;;;21.61;50.23;101333.53;5057699;28;45371;-50
2022/10/30 10:27:52;;;;;;;;;11.00;9.50;;;;;21.58;50.64;101319.59;5057626;28;45251;-49
2022/10/30 10:30:22;;;;;;;;;12.75;9.50;;;;;21.56;50.75;101311.66;5058162;28;45335;-50
2022/10/30 10:33:03;;;;;;;;;8.00;8.00;;;;;21.43;50.81;101322.44;5057398;28;45464;-47
2022/10/30 10:35:55;;;;;;;;;13.00;9.60;;;;;21.29;51.21;101326.13;5057487;28;45320;-44
2022/10/30 10:38:47;;;;;;;;;10.75;9.00;;;;;21.16;51.29;101318.81;5057675;28;45500;-43
2022/10/30 10:41:17;;;;;;;;;10.00;9.00;;;;;21.06;51.43;101310.22;5057832;28;45382;-45
2022/10/30 10:44:05;;;;;;;;;10.50;6.75;;;;;20.94;51.58;101309.94;5057273;28;46980;-42
2022/10/30 10:46:30;;;;;;;;;10.20;8.40;;;;;20.93;51.17;101327.22;5057249;28;45513;-43
2022/10/30 10:49:02;;;;;;;;;13.00;10.00;;;;;20.94;51.77;101347.81;5057434;28;45378;-44
2022/10/30 10:51:36;;;;;;;;;10.50;9.50;;;;;21.21;51.80;101356.06;5057451;28;45386;-42
2022/10/30 10:54:15;;;;;;;;;12.75;9.25;;;;;21.35;51.44;101363.22;5057057;28;46098;-42
2022/10/30 10:56:45;;;;;;;;;11.00;8.50;;;;;21.41;51.11;101365.16;5057058;28;45369;-43
2022/10/30 10:59:37;;;;;;;;;8.50;8.50;;;;;21.45;51.14;101373.66;5057433;28;45286;-43
2022/10/30 11:02:24;;;;;;;;;9.25;9.00;;;;;21.46;51.06;101365.38;5057785;28;45438;-41
2022/10/30 11:04:52;;;;;;;;;9.25;9.25;;;;;21.40;50.72;101350.75;5056856;28;45322;-44
2022/10/30 11:07:22;;;;;;;;;9.40;7.60;;;;;21.52;50.73;101366.41;5059176;28;45240;-44
2022/10/30 11:09:52;;;;;;;;;8.75;8.00;;;;;21.61;50.39;101360.59;5059392;28;45382;-44
2022/10/30 11:12:24;;;;;;;;;9.75;9.00;;;;;21.61;50.36;101366.00;5059135;28;45260;-43
2022/10/30 11:14:49;;;;;;;;;7.25;7.25;;;;;21.77;50.51;101377.50;5058860;28;46267;-45
2022/10/30 11:17:23;;;;;;;;;10.75;9.00;;;;;21.85;50.27;101371.91;5057406;28;45325;-44